Time;durP1;ratioP1;P1;durP2;ratioP2;P2;SDS_P1;SDS_P2;PMS_P1;PMS_P2;Temp;Humidity;BMP_temperature;BMP_pressure;BME280_temperature;BME280_humidity;BME280_pressure;Samples;Min_cycle;Max_cycle;Signal;HPM_P1;HPM_P2
2022/11/02 00:00:22;;;;;;;7.55;2.13;;;;;;;;;;6325523;22;20022;-83
2022/11/02 00:02:47;;;;;;;7.30;2.38;;;;;;;;;;6295966;22;20036;-84
2022/11/02 00:05:13;;;;;;;8.57;2.45;;;;;;;;;;6267794;22;20015;-83
2022/11/02 00:07:39;;;;;;;7.05;2.10;;;;;;;;;;6289699;22;20019;-82
2022/11/02 00:10:05;;;;;;;9.52;2.28;;;;;;;;;;6293000;22;20403;-84
2022/11/02 00:12:30;;;;;;;7.70;2.17;;;;;;;;;;6295320;22;20490;-83
2022/11/02 00:14:56;;;;;;;10.18;2.60;;;;;;;;;;6294914;22;20084;-83
2022/11/02 00:17:21;;;;;;;7.25;1.92;;;;;;;;;;6293737;22;20030;-83
2022/11/02 00:19:47;;;;;;;14.15;2.47;;;;;;;;;;6269105;22;20089;-83
2022/11/02 00:22:38;;;;;;;10.05;2.72;;;;;;;;;;6321331;22;20018;-83
2022/11/02 00:25:04;;;;;;;11.57;2.70;;;;;;;;;;6269486;22;20007;-84
2022/11/02 00:27:30;;;;;;;11.07;2.35;;;;;;;;;;6299439;22;19999;-85
2022/11/02 00:29:56;;;;;;;14.80;3.85;;;;;;;;;;6273640;22;20012;-85
2022/11/02 00:32:21;;;;;;;9.30;2.50;;;;;;;;;;6293934;22;20006;-84
2022/11/02 00:34:47;;;;;;;12.07;2.60;;;;;;;;;;6269080;22;20015;-84
2022/11/02 00:37:13;;;;;;;10.68;2.60;;;;;;;;;;6271312;22;20050;-86
2022/11/02 00:39:39;;;;;;;8.50;2.55;;;;;;;;;;6268810;22;20011;-84
2022/11/02 00:42:04;;;;;;;8.43;2.65;;;;;;;;;;6294154;22;19996;-83
2022/11/02 00:44:31;;;;;;;13.07;2.72;;;;;;;;;;6317660;22;20023;-83
2022/11/02 00:46:56;;;;;;;9.77;2.70;;;;;;;;;;6289824;22;20381;-84
2022/11/02 00:49:23;;;;;;;9.43;2.45;;;;;;;;;;6291857;22;20022;-83
2022/11/02 00:51:49;;;;;;;;;;;;;;;;;;6267279;22;20058;-84
2022/11/02 00:54:15;;;;;;;9.82;2.25;;;;;;;;;;6318171;22;19990;-85
2022/11/02 00:56:41;;;;;;;9.68;2.10;;;;;;;;;;6296824;22;19999;-84
2022/11/02 00:59:06;;;;;;;10.45;2.20;;;;;;;;;;6267613;22;20018;-83
2022/11/02 01:01:33;;;;;;;9.10;2.28;;;;;;;;;;6292038;22;20018;-85
2022/11/02 01:03:58;;;;;;;7.82;1.95;;;;;;;;;;6290396;22;20034;-84
2022/11/02 01:06:24;;;;;;;6.60;2.08;;;;;;;;;;6291847;22;20037;-84
2022/11/02 01:08:49;;;;;;;9.75;1.90;;;;;;;;;;6265708;22;20011;-83
2022/11/02 01:11:16;;;;;;;8.23;2.03;;;;;;;;;;6266218;22;20078;-84
2022/11/02 01:13:42;;;;;;;7.85;2.35;;;;;;;;;;6265748;22;20060;-84
2022/11/02 01:16:08;;;;;;;8.10;2.22;;;;;;;;;;6270836;22;19999;-85
2022/11/02 01:18:34;;;;;;;11.13;2.10;;;;;;;;;;6269726;22;20030;-84
2022/11/02 01:21:00;;;;;;;9.23;2.28;;;;;;;;;;6292449;22;19999;-83
2022/11/02 01:23:25;;;;;;;6.93;2.22;;;;;;;;;;6266210;22;20035;-84
2022/11/02 01:25:51;;;;;;;10.95;2.30;;;;;;;;;;6265212;22;20010;-83
2022/11/02 01:28:18;;;;;;;5.97;2.25;;;;;;;;;;6317317;22;20011;-84
2022/11/02 01:30:45;;;;;;;8.90;3.05;;;;;;;;;;6290571;22;20003;-84
2022/11/02 01:33:11;;;;;;;7.85;2.17;;;;;;;;;;6265105;22;20014;-85
2022/11/02 01:35:37;;;;;;;7.13;2.42;;;;;;;;;;6318462;22;20423;-85
2022/11/02 01:38:02;;;;;;;5.68;2.00;;;;;;;;;;6266067;22;20007;-85
2022/11/02 01:40:28;;;;;;;;;;;;;;;;;;6266293;22;20094;-84
2022/11/02 01:42:54;;;;;;;5.78;2.10;;;;;;;;;;6315940;22;20246;-83
2022/11/02 01:45:19;;;;;;;9.35;2.28;;;;;;;;;;6316997;22;20006;-84
2022/11/02 01:47:45;;;;;;;5.85;1.95;;;;;;;;;;6291504;22;20018;-84
2022/11/02 01:50:12;;;;;;;8.45;2.30;;;;;;;;;;6266057;22;20015;-83
2022/11/02 01:52:38;;;;;;;5.80;2.00;;;;;;;;;;6292005;22;20085;-84
2022/11/02 01:55:07;;;;;;;5.00;2.08;;;;;;;;;;6316346;22;20029;-83
2022/11/02 01:57:32;;;;;;;9.50;2.40;;;;;;;;;;6317558;22;20356;-84
2022/11/02 01:59:59;;;;;;;8.27;2.40;;;;;;;;;;6265211;22;19995;-83
2022/11/02 02:02:26;;;;;;;7.55;2.58;;;;;;;;;;6264699;22;20062;-83
2022/11/02 02:04:51;;;;;;;;;;;;;;;;;;6291451;22;20019;-84
2022/11/02 02:07:17;;;;;;;6.75;1.83;;;;;;;;;;6316851;22;19956;-85
2022/11/02 02:09:42;;;;;;;7.50;2.17;;;;;;;;;;6292785;22;20018;-84
2022/11/02 02:12:08;;;;;;;10.25;2.50;;;;;;;;;;6267241;22;20015;-83
2022/11/02 02:14:33;;;;;;;5.53;2.00;;;;;;;;;;6268734;22;20010;-84
2022/11/02 02:16:59;;;;;;;;;;;;;;;;;;6319929;22;20409;-84
2022/11/02 02:19:25;;;;;;;7.70;2.17;;;;;;;;;;6293383;22;19952;-85
2022/11/02 02:22:01;;;;;;;8.48;2.42;;;;;;;;;;6319565;22;20007;-85
2022/11/02 02:24:33;;;;;;;7.38;2.28;;;;;;;;;;6318595;22;20022;-84
2022/11/02 02:27:19;;;;;;;6.40;2.33;;;;;;;;;;6317698;22;20011;-84
2022/11/02 02:29:45;;;;;;;6.05;2.10;;;;;;;;;;6319437;22;20018;-84
2022/11/02 02:32:23;;;;;;;8.32;2.60;;;;;;;;;;6292166;22;19995;-85
2022/11/02 02:34:56;;;;;;;9.05;2.97;;;;;;;;;;6317586;22;20015;-84
2022/11/02 02:37:26;;;;;;;7.90;2.83;;;;;;;;;;6291365;22;20008;-83
2022/11/02 02:40:05;;;;;;;9.35;2.28;;;;;;;;;;6265562;22;20110;-84
2022/11/02 02:42:56;;;;;;;7.47;2.92;;;;;;;;;;6318366;22;20059;-85
2022/11/02 02:45:37;;;;;;;10.85;3.17;;;;;;;;;;6319999;22;20068;-84
2022/11/02 02:48:03;;;;;;;16.23;3.35;;;;;;;;;;6319074;22;20018;-83
2022/11/02 02:50:30;;;;;;;8.75;3.45;;;;;;;;;;6318811;22;20003;-84
2022/11/02 02:52:56;;;;;;;8.63;3.30;;;;;;;;;;6267364;22;20011;-84
2022/11/02 02:55:23;;;;;;;6.93;2.95;;;;;;;;;;6266255;22;20030;-84
2022/11/02 02:57:49;;;;;;;9.05;2.92;;;;;;;;;;6293024;22;20006;-83
2022/11/02 03:00:16;;;;;;;7.43;2.83;;;;;;;;;;6266697;22;20011;-84
2022/11/02 03:02:42;;;;;;;9.40;3.92;;;;;;;;;;6266832;22;19999;-85
2022/11/02 03:05:21;;;;;;;9.40;3.28;;;;;;;;;;6317726;22;20340;-84
2022/11/02 03:07:47;;;;;;;5.65;2.97;;;;;;;;;;6294707;22;19988;-84
2022/11/02 03:10:48;;;;;;;10.30;4.18;;;;;;;;;;6294516;22;19983;-84
2022/11/02 03:13:14;;;;;;;15.13;3.78;;;;;;;;;;6233269;23;20578;-85
2022/11/02 03:15:41;;;;;;;9.20;4.00;;;;;;;;;;6277163;22;19995;-85
2022/11/02 03:18:21;;;;;;;9.88;3.42;;;;;;;;;;6271345;22;20031;-85
2022/11/02 03:21:17;;;;;;;9.52;3.58;;;;;;;;;;6298204;22;20465;-86
2022/11/02 03:23:49;;;;;;;12.82;4.90;;;;;;;;;;6281728;22;20016;-86
2022/11/02 03:26:22;;;;;;;9.63;3.90;;;;;;;;;;6324039;22;20073;-84
2022/11/02 03:28:48;;;;;;;9.57;3.83;;;;;;;;;;6299503;22;20014;-86
2022/11/02 03:31:21;;;;;;;12.68;4.20;;;;;;;;;;6302100;22;19999;-85
2022/11/02 03:34:02;;;;;;;9.43;4.35;;;;;;;;;;6301273;22;20007;-85
2022/11/02 03:36:31;;;;;;;12.27;4.47;;;;;;;;;;6326275;22;20090;-84
2022/11/02 03:39:03;;;;;;;10.45;4.35;;;;;;;;;;6298611;22;20018;-84
2022/11/02 03:41:31;;;;;;;10.77;3.63;;;;;;;;;;6298553;22;20090;-84
2022/11/02 03:44:01;;;;;;;12.65;4.53;;;;;;;;;;6295601;22;19999;-84
2022/11/02 03:46:27;;;;;;;10.13;4.63;;;;;;;;;;6297297;22;20014;-85
2022/11/02 03:48:53;;;;;;;12.55;4.68;;;;;;;;;;6272859;22;20411;-84
2022/11/02 03:51:19;;;;;;;11.70;4.55;;;;;;;;;;6298277;22;20022;-84
2022/11/02 03:53:47;;;;;;;14.05;4.63;;;;;;;;;;6269871;22;20007;-84
2022/11/02 03:56:24;;;;;;;13.43;5.00;;;;;;;;;;6270958;22;20033;-85
2022/11/02 03:58:51;;;;;;;9.13;4.65;;;;;;;;;;6296801;22;20071;-84
2022/11/02 04:01:16;;;;;;;12.02;4.68;;;;;;;;;;6272602;22;19996;-86
2022/11/02 04:03:43;;;;;;;11.07;4.75;;;;;;;;;;6301242;22;20057;-86
2022/11/02 04:06:08;;;;;;;;;;;;;;;;;;6274374;22;20019;-85
2022/11/02 04:08:46;;;;;;;8.40;3.50;;;;;;;;;;6322839;22;19906;-84
2022/11/02 04:16:46;;;;;;;9.85;4.00;;;;;;;;;;6302300;22;20015;-85
2022/11/02 04:19:27;;;;;;;10.35;4.13;;;;;;;;;;6299793;22;20063;-84
2022/11/02 04:27:29;;;;;;;18.13;5.25;;;;;;;;;;6301257;22;20045;-85
2022/11/02 04:29:56;;;;;;;10.75;4.72;;;;;;;;;;6299617;22;19999;-85
2022/11/02 04:35:11;;;;;;;14.57;4.90;;;;;;;;;;6305592;22;20015;-85
2022/11/02 04:40:24;;;;;;;18.23;5.55;;;;;;;;;;6303936;22;20014;-85
2022/11/02 04:42:50;;;;;;;;;;;;;;;;;;6274103;22;20050;-82
2022/11/02 04:45:16;;;;;;;16.35;5.88;;;;;;;;;;6297675;22;19906;-84
2022/11/02 04:47:41;;;;;;;15.43;5.10;;;;;;;;;;6274064;22;20004;-83
2022/11/02 04:50:07;;;;;;;12.40;4.90;;;;;;;;;;6272928;22;20477;-85
2022/11/02 04:52:33;;;;;;;12.18;5.10;;;;;;;;;;6301352;22;20006;-85
2022/11/02 04:54:58;;;;;;;10.50;4.25;;;;;;;;;;6322575;22;20015;-84
2022/11/02 04:57:24;;;;;;;12.93;5.65;;;;;;;;;;6271647;22;20026;-84
2022/11/02 04:59:52;;;;;;;14.00;5.00;;;;;;;;;;6296935;22;20015;-84
2022/11/02 05:02:18;;;;;;;12.75;5.47;;;;;;;;;;6272295;22;20395;-84
2022/11/02 05:04:45;;;;;;;19.70;5.38;;;;;;;;;;6282825;22;20029;-84
2022/11/02 05:07:12;;;;;;;13.18;5.63;;;;;;;;;;6279434;22;20014;-84
2022/11/02 05:09:38;;;;;;;14.45;5.47;;;;;;;;;;6304860;22;20011;-84
2022/11/02 05:14:45;;;;;;;18.02;5.85;;;;;;;;;;6354785;22;20072;-85
2022/11/02 05:17:12;;;;;;;20.50;7.10;;;;;;;;;;6276497;22;20011;-83
2022/11/02 05:19:38;;;;;;;15.80;5.63;;;;;;;;;;6327953;22;20094;-85
2022/11/02 05:22:04;;;;;;;14.35;5.57;;;;;;;;;;6303100;22;20006;-86
2022/11/02 05:24:30;;;;;;;16.90;5.38;;;;;;;;;;6294930;22;20019;-83
2022/11/02 05:26:59;;;;;;;15.88;5.32;;;;;;;;;;6292636;22;20072;-82
2022/11/02 05:29:25;;;;;;;15.68;5.90;;;;;;;;;;6255591;22;20016;-80
2022/11/02 05:31:52;;;;;;;17.60;5.88;;;;;;;;;;6281873;22;20011;-80
2022/11/02 05:34:18;;;;;;;14.73;5.57;;;;;;;;;;6268000;22;20045;-82
2022/11/02 05:36:46;;;;;;;20.25;6.93;;;;;;;;;;6272274;22;20012;-84
2022/11/02 05:39:13;;;;;;;21.20;6.90;;;;;;;;;;6294039;22;20022;-86
2022/11/02 05:41:38;;;;;;;15.68;6.38;;;;;;;;;;6267856;22;20007;-86
2022/11/02 05:44:05;;;;;;;17.60;6.68;;;;;;;;;;6296157;22;20011;-83
2022/11/02 05:46:33;;;;;;;20.38;6.50;;;;;;;;;;6294121;22;20064;-85
2022/11/02 05:48:59;;;;;;;18.60;6.70;;;;;;;;;;6270643;22;20003;-84
2022/11/02 05:51:24;;;;;;;16.73;6.32;;;;;;;;;;6295254;22;20011;-84
2022/11/02 05:53:50;;;;;;;19.02;7.25;;;;;;;;;;6270964;22;20007;-83
2022/11/02 05:56:16;;;;;;;17.08;6.85;;;;;;;;;;6294615;22;20027;-85
2022/11/02 05:58:41;;;;;;;17.33;5.88;;;;;;;;;;6269131;22;20058;-85
2022/11/02 06:01:09;;;;;;;12.35;5.50;;;;;;;;;;6296418;22;20012;-85
2022/11/02 06:03:35;;;;;;;17.50;5.97;;;;;;;;;;6294405;22;20008;-85
2022/11/02 06:06:04;;;;;;;13.43;5.78;;;;;;;;;;6293420;22;20019;-85
2022/11/02 06:08:33;;;;;;;15.30;5.57;;;;;;;;;;6295508;22;20004;-84
2022/11/02 06:11:08;;;;;;;13.60;5.25;;;;;;;;;;6296955;22;20041;-85
2022/11/02 06:13:35;;;;;;;13.20;5.45;;;;;;;;;;6299532;22;20071;-86
2022/11/02 06:16:02;;;;;;;12.80;5.10;;;;;;;;;;6272077;22;20007;-85
2022/11/02 06:18:30;;;;;;;13.57;5.38;;;;;;;;;;6298150;22;20045;-86
2022/11/02 06:20:56;;;;;;;7.45;4.65;;;;;;;;;;6270488;22;19998;-87
2022/11/02 06:23:22;;;;;;;11.18;4.10;;;;;;;;;;6299586;22;20015;-83
2022/11/02 06:25:51;;;;;;;13.10;4.45;;;;;;;;;;6269788;22;20095;-84
2022/11/02 06:28:17;;;;;;;14.02;5.38;;;;;;;;;;6294448;22;19991;-85
2022/11/02 06:30:42;;;;;;;13.68;4.72;;;;;;;;;;6294956;22;20023;-84
2022/11/02 06:33:08;;;;;;;11.18;5.05;;;;;;;;;;6294228;22;20012;-86
2022/11/02 06:35:34;;;;;;;11.30;4.78;;;;;;;;;;6269991;22;20022;-85
2022/11/02 06:38:01;;;;;;;13.07;4.38;;;;;;;;;;6273513;22;20031;-85
2022/11/02 06:40:27;;;;;;;16.45;4.85;;;;;;;;;;6272418;22;20003;-84
2022/11/02 06:42:57;;;;;;;13.02;5.00;;;;;;;;;;6295842;22;20040;-84
2022/11/02 06:45:23;;;;;;;12.05;5.20;;;;;;;;;;6298650;22;20097;-84
2022/11/02 06:47:48;;;;;;;12.57;5.10;;;;;;;;;;6298361;22;20046;-85
2022/11/02 06:50:14;;;;;;;9.90;4.97;;;;;;;;;;6271431;22;20000;-86
2022/11/02 06:52:44;;;;;;;8.68;4.35;;;;;;;;;;6298826;22;20018;-85
2022/11/02 06:55:10;;;;;;;10.75;4.78;;;;;;;;;;6273448;22;20090;-85
2022/11/02 06:57:36;;;;;;;9.88;4.85;;;;;;;;;;6299323;22;20012;-85
2022/11/02 07:00:05;;;;;;;10.40;4.70;;;;;;;;;;6301643;22;20003;-84
2022/11/02 07:02:32;;;;;;;10.27;4.75;;;;;;;;;;6302484;22;20038;-84
2022/11/02 07:04:57;;;;;;;11.85;4.25;;;;;;;;;;6301580;22;20000;-85
2022/11/02 07:07:26;;;;;;;12.32;4.88;;;;;;;;;;6301661;22;20014;-86
2022/11/02 07:09:51;;;;;;;7.15;3.60;;;;;;;;;;6277034;22;19996;-86
2022/11/02 07:12:38;;;;;;;10.40;4.00;;;;;;;;;;6300012;22;20007;-86
2022/11/02 07:15:05;;;;;;;11.15;4.38;;;;;;;;;;6299005;22;20015;-85
2022/11/02 07:17:32;;;;;;;10.32;4.10;;;;;;;;;;6273155;22;19999;-86
2022/11/02 07:19:58;;;;;;;10.20;4.35;;;;;;;;;;6300040;22;20015;-85
2022/11/02 07:22:23;;;;;;;10.00;4.05;;;;;;;;;;6272511;22;19992;-85
2022/11/02 07:24:49;;;;;;;10.60;3.75;;;;;;;;;;6298671;22;20039;-85
2022/11/02 07:27:15;;;;;;;8.93;4.13;;;;;;;;;;6297938;22;19992;-85
2022/11/02 07:29:41;;;;;;;8.30;3.67;;;;;;;;;;6270543;22;20022;-83
2022/11/02 07:32:07;;;;;;;5.85;3.30;;;;;;;;;;6275354;22;20004;-87
2022/11/02 07:34:33;;;;;;;6.35;4.18;;;;;;;;;;6299456;22;20012;-86
2022/11/02 07:36:58;;;;;;;8.05;4.30;;;;;;;;;;6300757;22;20012;-85
2022/11/02 07:42:00;;;;;;;5.57;3.28;;;;;;;;;;6352590;22;20052;-85
2022/11/02 07:44:26;;;;;;;7.03;3.47;;;;;;;;;;6337881;22;20011;-86
2022/11/02 07:46:52;;;;;;;6.85;3.50;;;;;;;;;;6336251;22;19991;-85
2022/11/02 07:49:17;;;;;;;6.78;3.45;;;;;;;;;;6336033;22;20013;-87
2022/11/02 07:51:43;;;;;;;6.20;3.67;;;;;;;;;;6335536;22;19998;-86
2022/11/02 07:54:08;;;;;;;7.25;3.83;;;;;;;;;;6336043;22;20011;-86
2022/11/02 07:56:34;;;;;;;5.93;3.15;;;;;;;;;;6309212;22;20014;-85
2022/11/02 07:59:00;;;;;;;6.85;3.80;;;;;;;;;;6311382;22;20007;-85
2022/11/02 08:01:25;;;;;;;7.20;3.58;;;;;;;;;;6310252;22;19997;-85
2022/11/02 08:03:53;;;;;;;8.80;3.72;;;;;;;;;;6336506;22;20015;-85
2022/11/02 08:06:20;;;;;;;7.47;4.07;;;;;;;;;;6335514;22;20006;-85
2022/11/02 08:08:47;;;;;;;5.97;3.78;;;;;;;;;;6361232;22;20022;-86
2022/11/02 08:11:13;;;;;;;7.13;4.00;;;;;;;;;;6309034;22;20010;-86
2022/11/02 08:16:14;;;;;;;7.15;4.00;;;;;;;;;;6346624;22;20034;-86
2022/11/02 08:18:40;;;;;;;7.40;3.55;;;;;;;;;;6307483;22;20007;-85
2022/11/02 08:21:06;;;;;;;8.40;4.40;;;;;;;;;;6308251;22;20013;-85
2022/11/02 08:23:32;;;;;;;7.30;3.70;;;;;;;;;;6307834;22;19991;-86
2022/11/02 08:25:58;;;;;;;11.35;4.35;;;;;;;;;;6309726;22;20003;-89
2022/11/02 08:28:24;;;;;;;6.10;3.33;;;;;;;;;;6310425;22;20021;-85
2022/11/02 08:30:50;;;;;;;6.80;3.50;;;;;;;;;;6282237;22;20010;-86
2022/11/02 08:33:16;;;;;;;8.52;4.07;;;;;;;;;;6283916;22;20010;-83
2022/11/02 08:35:42;;;;;;;7.13;3.45;;;;;;;;;;6309447;22;20050;-86
2022/11/02 08:38:08;;;;;;;7.60;3.70;;;;;;;;;;6308313;22;20007;-86
2022/11/02 08:40:34;;;;;;;6.45;3.35;;;;;;;;;;6282731;22;20026;-85
2022/11/02 08:42:59;;;;;;;;;;;;;;;;;;6283394;22;20011;-86
2022/11/02 08:45:26;;;;;;;6.45;3.50;;;;;;;;;;6307486;22;19910;-86
2022/11/02 08:47:51;;;;;;;4.13;2.65;;;;;;;;;;6310046;22;20075;-87
2022/11/02 08:50:35;;;;;;;5.97;3.28;;;;;;;;;;6313971;22;20019;-85
2022/11/02 08:53:00;;;;;;;5.13;2.85;;;;;;;;;;6310261;22;20005;-87
2022/11/02 08:55:27;;;;;;;6.00;3.67;;;;;;;;;;6334904;22;20006;-86
2022/11/02 08:57:56;;;;;;;7.07;3.33;;;;;;;;;;6284025;22;20032;-86
2022/11/02 09:05:47;;;;;;;8.48;4.50;;;;;;;;;;6341654;22;20052;-86
2022/11/02 09:08:37;;;;;;;7.22;4.38;;;;;;;;;;6302045;22;20011;-87
2022/11/02 09:11:03;;;;;;;8.30;4.78;;;;;;;;;;6330318;22;20042;-88
2022/11/02 09:13:29;;;;;;;10.20;4.68;;;;;;;;;;6291431;22;20014;-86
2022/11/02 09:15:55;;;;;;;7.50;4.20;;;;;;;;;;6334210;22;20021;-85
2022/11/02 09:18:21;;;;;;;6.57;4.65;;;;;;;;;;6309393;22;20070;-87
2022/11/02 09:20:47;;;;;;;9.70;4.82;;;;;;;;;;6309114;22;20015;-87
2022/11/02 09:23:15;;;;;;;7.60;4.28;;;;;;;;;;6359107;22;20005;-86
2022/11/02 09:25:41;;;;;;;11.23;5.38;;;;;;;;;;6334770;22;20105;-83
2022/11/02 09:28:07;;;;;;;6.85;4.57;;;;;;;;;;6334055;22;20059;-84
2022/11/02 09:30:33;;;;;;;7.90;4.47;;;;;;;;;;6335948;22;20064;-85
2022/11/02 09:32:59;;;;;;;7.43;4.68;;;;;;;;;;6331658;22;20018;-85
2022/11/02 09:35:26;;;;;;;9.00;5.53;;;;;;;;;;6308448;22;20050;-86
2022/11/02 09:37:51;;;;;;;;;;;;;;;;;;6307671;22;20001;-86
2022/11/02 09:40:19;;;;;;;10.68;4.72;;;;;;;;;;6333951;22;19906;-87
2022/11/02 09:42:53;;;;;;;11.90;5.53;;;;;;;;;;6306580;22;19999;-86
2022/11/02 09:45:19;;;;;;;9.32;5.03;;;;;;;;;;6307635;22;20010;-87
2022/11/02 09:47:51;;;;;;;9.02;5.10;;;;;;;;;;6333563;22;19999;-86
2022/11/02 09:50:21;;;;;;;10.40;4.72;;;;;;;;;;6308244;22;20077;-87
2022/11/02 09:52:49;;;;;;;9.30;5.35;;;;;;;;;;6274545;22;20043;-86
2022/11/02 09:57:59;;;;;;;6.60;4.72;;;;;;;;;;6317307;22;20034;-86
2022/11/02 10:00:25;;;;;;;6.60;4.75;;;;;;;;;;6304395;22;20022;-86
2022/11/02 10:02:54;;;;;;;7.75;5.20;;;;;;;;;;6279919;22;20006;-88
2022/11/02 10:05:40;;;;;;;8.32;5.00;;;;;;;;;;6330569;22;20017;-87
2022/11/02 10:08:08;;;;;;;9.85;5.53;;;;;;;;;;6329758;22;20014;-87
2022/11/02 10:10:38;;;;;;;6.20;4.47;;;;;;;;;;6330138;22;20043;-85
2022/11/02 10:13:23;;;;;;;6.40;4.75;;;;;;;;;;6303957;22;20056;-86
2022/11/02 10:15:55;;;;;;;8.10;4.65;;;;;;;;;;6331856;22;20008;-87
2022/11/02 10:18:27;;;;;;;8.00;4.43;;;;;;;;;;6279547;22;20007;-87
2022/11/02 10:20:56;;;;;;;7.32;4.72;;;;;;;;;;6330451;22;20011;-86
2022/11/02 10:23:21;;;;;;;12.57;5.00;;;;;;;;;;6278961;22;20316;-86
2022/11/02 10:25:48;;;;;;;7.68;5.15;;;;;;;;;;6331872;22;20077;-87
2022/11/02 10:28:15;;;;;;;7.53;5.18;;;;;;;;;;6305501;22;20005;-86
2022/11/02 10:30:42;;;;;;;9.73;6.18;;;;;;;;;;6307092;22;19996;-83
2022/11/02 10:33:13;;;;;;;7.20;5.10;;;;;;;;;;6308398;22;19999;-85
2022/11/02 10:35:48;;;;;;;6.70;4.35;;;;;;;;;;6308519;22;20022;-85
2022/11/02 10:38:30;;;;;;;6.95;4.47;;;;;;;;;;6333868;22;20033;-85
2022/11/02 10:41:01;;;;;;;8.57;4.45;;;;;;;;;;6308483;22;20389;-87
2022/11/02 10:43:31;;;;;;;7.20;4.68;;;;;;;;;;6335044;22;20078;-86
2022/11/02 10:46:16;;;;;;;8.23;4.53;;;;;;;;;;6306731;22;20007;-86
2022/11/02 10:48:45;;;;;;;7.30;4.40;;;;;;;;;;6331418;22;20042;-84
2022/11/02 10:51:13;;;;;;;5.60;3.58;;;;;;;;;;6306778;22;20015;-87
2022/11/02 10:53:39;;;;;;;5.75;3.00;;;;;;;;;;6307950;22;20014;-85
2022/11/02 10:56:04;;;;;;;4.63;3.00;;;;;;;;;;6282562;22;20010;-86
2022/11/02 11:04:24;;;;;;;4.25;2.67;;;;;;;;;;6332446;22;20049;-87
2022/11/02 11:06:52;;;;;;;5.88;3.00;;;;;;;;;;6307624;22;20114;-86
2022/11/02 11:09:17;;;;;;;;;;;;;;;;;;6283294;22;20027;-85
2022/11/02 11:12:02;;;;;;;4.17;2.70;;;;;;;;;;6334759;22;19887;-86
2022/11/02 11:14:33;;;;;;;4.70;3.20;;;;;;;;;;6333943;22;20318;-86
2022/11/02 11:17:29;;;;;;;5.35;3.03;;;;;;;;;;6307691;22;20011;-86
2022/11/02 11:19:55;;;;;;;4.95;3.03;;;;;;;;;;6307082;22;19999;-84
2022/11/02 11:22:31;;;;;;;4.72;3.28;;;;;;;;;;6308273;22;19987;-86
2022/11/02 11:24:57;;;;;;;;;;;;;;;;;;6309267;22;20059;-84
2022/11/02 11:32:48;;;;;;;5.53;3.20;;;;;;;;;;6308804;22;20057;-87
2022/11/02 11:35:16;;;;;;;3.40;2.40;;;;;;;;;;6280514;22;20017;-86
2022/11/02 11:37:47;;;;;;;5.78;2.83;;;;;;;;;;6306847;22;20011;-84
2022/11/02 11:40:20;;;;;;;6.32;2.85;;;;;;;;;;6281769;22;20018;-86
2022/11/02 11:45:22;;;;;;;4.80;3.10;;;;;;;;;;6301959;22;19919;-86
2022/11/02 11:47:51;;;;;;;4.43;3.08;;;;;;;;;;6272921;22;20004;-86
2022/11/02 11:50:17;;;;;;;4.97;2.90;;;;;;;;;;6273313;22;20067;-87
2022/11/02 11:52:45;;;;;;;5.00;3.10;;;;;;;;;;6275858;22;20012;-87
2022/11/02 11:55:26;;;;;;;4.40;2.88;;;;;;;;;;6277101;22;20036;-86
2022/11/02 11:58:10;;;;;;;5.75;3.00;;;;;;;;;;6275466;22;20090;-86
2022/11/02 12:00:36;;;;;;;5.55;2.40;;;;;;;;;;6273808;22;20004;-85
2022/11/02 12:03:05;;;;;;;4.68;2.70;;;;;;;;;;6276013;22;19995;-87
2022/11/02 12:05:35;;;;;;;4.70;3.38;;;;;;;;;;6276440;22;20008;-85
2022/11/02 12:08:14;;;;;;;4.45;2.65;;;;;;;;;;6299734;22;20082;-84
2022/11/02 12:10:55;;;;;;;4.20;2.80;;;;;;;;;;6275062;22;20071;-85
2022/11/02 12:13:24;;;;;;;7.35;3.03;;;;;;;;;;6275365;22;20011;-87
2022/11/02 12:16:08;;;;;;;4.72;3.30;;;;;;;;;;6276552;22;20004;-87
2022/11/02 12:18:40;;;;;;;5.37;2.40;;;;;;;;;;6276198;22;20008;-85
2022/11/02 12:21:06;;;;;;;5.25;2.65;;;;;;;;;;6275993;22;20268;-85
2022/11/02 12:23:39;;;;;;;3.78;2.45;;;;;;;;;;6276188;22;20000;-87
2022/11/02 12:26:05;;;;;;;4.05;2.58;;;;;;;;;;6274580;22;20012;-85
2022/11/02 12:28:43;;;;;;;4.68;2.80;;;;;;;;;;6299802;22;20003;-86
2022/11/02 12:34:03;;;;;;;10.27;2.90;;;;;;;;;;6380536;22;20049;-87
2022/11/02 12:37:12;;;;;;;6.47;2.80;;;;;;;;;;6373684;22;19993;-86
2022/11/02 12:39:44;;;;;;;3.72;2.60;;;;;;;;;;6368126;22;20086;-86
2022/11/02 12:42:23;;;;;;;4.32;2.30;;;;;;;;;;6368233;22;20062;-84
2022/11/02 12:44:51;;;;;;;4.22;2.47;;;;;;;;;;6341126;22;20039;-84
2022/11/02 12:47:17;;;;;;;4.97;2.38;;;;;;;;;;6340896;22;20005;-87
2022/11/02 12:50:02;;;;;;;4.35;2.30;;;;;;;;;;6342620;22;19990;-85
2022/11/02 12:52:28;;;;;;;3.83;2.72;;;;;;;;;;6343385;22;20002;-85
2022/11/02 12:54:54;;;;;;;3.85;2.42;;;;;;;;;;6341498;22;20002;-85
2022/11/02 12:57:21;;;;;;;5.20;2.55;;;;;;;;;;6340120;22;20006;-86
2022/11/02 12:59:48;;;;;;;3.90;2.30;;;;;;;;;;6368859;22;20034;-86
2022/11/02 13:02:19;;;;;;;3.55;2.30;;;;;;;;;;6341628;22;20066;-87
2022/11/02 13:04:57;;;;;;;6.40;4.10;;;;;;;;;;6342033;22;20011;-85
2022/11/02 13:07:35;;;;;;;5.57;2.60;;;;;;;;;;6314776;22;20010;-86
2022/11/02 13:10:20;;;;;;;5.68;3.05;;;;;;;;;;6342800;22;19997;-85
2022/11/02 13:12:52;;;;;;;4.45;2.88;;;;;;;;;;6368005;22;20010;-86
2022/11/02 13:15:18;;;;;;;6.10;3.22;;;;;;;;;;6341118;22;20016;-87
2022/11/02 13:28:47;;;;;;;4.80;3.03;;;;;;;;;;6395145;22;20094;-86
2022/11/02 13:31:28;;;;;;;4.82;3.17;;;;;;;;;;6369201;22;20091;-86
2022/11/02 13:33:54;;;;;;;5.50;3.80;;;;;;;;;;6342893;22;20030;-86
2022/11/02 13:36:20;;;;;;;5.32;3.38;;;;;;;;;;6342717;22;19995;-86
2022/11/02 13:38:48;;;;;;;5.70;3.80;;;;;;;;;;6314961;22;20029;-84
2022/11/02 13:41:27;;;;;;;6.30;3.63;;;;;;;;;;6336607;22;20326;-85
2022/11/02 13:44:03;;;;;;;5.40;3.00;;;;;;;;;;6337617;22;20010;-85
2022/11/02 13:46:38;;;;;;;5.18;2.35;;;;;;;;;;6311656;22;20017;-85
2022/11/02 13:49:23;;;;;;;3.53;2.45;;;;;;;;;;6340088;22;20014;-84
2022/11/02 13:51:50;;;;;;;5.38;3.05;;;;;;;;;;6315270;22;20010;-86
2022/11/02 13:54:23;;;;;;;6.07;3.78;;;;;;;;;;6315896;22;20029;-87
2022/11/02 13:56:50;;;;;;;6.72;3.42;;;;;;;;;;6316585;22;20076;-86
2022/11/02 13:59:28;;;;;;;6.82;3.88;;;;;;;;;;6341611;22;20002;-85
2022/11/02 14:01:53;;;;;;;6.65;3.63;;;;;;;;;;6312368;22;20014;-86
2022/11/02 14:04:19;;;;;;;;;;;;;;;;;;6340688;22;20022;-86
2022/11/02 14:06:54;;;;;;;4.80;3.35;;;;;;;;;;6339723;22;19906;-86
2022/11/02 14:09:24;;;;;;;5.00;3.40;;;;;;;;;;6366814;22;20006;-87
2022/11/02 14:11:50;;;;;;;5.65;3.42;;;;;;;;;;6366600;22;20346;-86
2022/11/02 14:14:20;;;;;;;4.53;3.38;;;;;;;;;;6339651;22;20037;-85
2022/11/02 14:16:56;;;;;;;5.05;3.45;;;;;;;;;;6341258;22;20013;-87
2022/11/02 14:21:57;;;;;;;5.80;3.53;;;;;;;;;;6345921;22;20052;-87
2022/11/02 14:24:32;;;;;;;4.88;3.33;;;;;;;;;;6331056;22;20007;-86
2022/11/02 14:26:58;;;;;;;5.13;3.47;;;;;;;;;;6304864;22;20041;-84
2022/11/02 14:29:24;;;;;;;;;;;;;;;;;;6304887;22;20022;-85
2022/11/02 14:31:52;;;;;;;5.75;3.33;;;;;;;;;;6304791;22;19911;-84
2022/11/02 14:34:46;;;;;;;5.20;3.10;;;;;;;;;;6329962;22;20015;-86
2022/11/02 14:37:51;;;;;;;6.15;3.60;;;;;;;;;;6331695;22;20015;-86
2022/11/02 14:40:32;;;;;;;6.20;3.13;;;;;;;;;;6329858;22;20007;-85
2022/11/02 14:43:03;;;;;;;4.97;2.92;;;;;;;;;;6329877;22;20007;-86
2022/11/02 14:49:19;;;;;;;8.32;4.22;;;;;;;;;;6332737;22;20026;-86
2022/11/02 14:52:00;;;;;;;7.53;3.40;;;;;;;;;;6331574;22;20011;-87
2022/11/02 14:54:26;;;;;;;6.85;3.60;;;;;;;;;;6304908;22;20078;-87
2022/11/02 14:56:58;;;;;;;5.53;3.92;;;;;;;;;;6305328;22;20055;-86
2022/11/02 14:59:26;;;;;;;6.07;3.80;;;;;;;;;;6329568;22;20026;-85
2022/11/02 15:02:21;;;;;;;6.05;3.83;;;;;;;;;;6303185;22;20003;-87
2022/11/02 15:04:47;;;;;;;6.63;3.95;;;;;;;;;;6304339;22;20007;-86
2022/11/02 15:07:15;;;;;;;5.40;3.47;;;;;;;;;;6304036;22;20030;-88
2022/11/02 15:09:54;;;;;;;6.15;4.30;;;;;;;;;;6304847;22;20071;-86
2022/11/02 15:15:15;;;;;;;7.47;3.53;;;;;;;;;;6264082;22;20019;-87
2022/11/02 15:17:40;;;;;;;4.80;3.00;;;;;;;;;;6304093;22;20036;-86
2022/11/02 15:20:09;;;;;;;5.63;4.13;;;;;;;;;;6280586;22;20010;-87
2022/11/02 15:22:36;;;;;;;6.10;3.97;;;;;;;;;;6281895;22;19991;-86
2022/11/02 15:25:10;;;;;;;6.07;4.45;;;;;;;;;;6282598;22;19990;-86
2022/11/02 15:30:15;;;;;;;6.43;3.53;;;;;;;;;;6290158;22;20020;-86
2022/11/02 15:32:51;;;;;;;7.90;3.65;;;;;;;;;;6251689;22;20007;-85
2022/11/02 15:35:24;;;;;;;5.32;3.70;;;;;;;;;;6248903;22;20083;-85
2022/11/02 15:37:51;;;;;;;7.10;3.40;;;;;;;;;;6274034;22;20022;-86
2022/11/02 15:40:24;;;;;;;6.38;3.40;;;;;;;;;;6249932;22;20061;-85
2022/11/02 15:43:09;;;;;;;4.47;2.70;;;;;;;;;;6224759;22;20012;-86
2022/11/02 15:45:53;;;;;;;4.22;2.85;;;;;;;;;;6251605;22;20031;-86
2022/11/02 15:48:19;;;;;;;5.97;4.07;;;;;;;;;;6300172;22;20031;-87
2022/11/02 15:51:02;;;;;;;6.05;3.53;;;;;;;;;;6248673;22;20000;-86
2022/11/02 15:53:34;;;;;;;5.72;2.92;;;;;;;;;;6273945;22;20078;-86
2022/11/02 15:59:27;;;;;;;6.75;3.58;;;;;;;;;;6325864;22;20050;-86
2022/11/02 16:02:22;;;;;;;5.45;3.45;;;;;;;;;;6304274;22;20011;-87
2022/11/02 16:04:49;;;;;;;4.05;2.83;;;;;;;;;;6272210;22;20037;-87
2022/11/02 16:07:16;;;;;;;4.28;2.80;;;;;;;;;;6253939;22;19975;-86
2022/11/02 16:09:45;;;;;;;5.40;3.03;;;;;;;;;;6280523;22;20034;-86
2022/11/02 16:12:17;;;;;;;4.22;2.97;;;;;;;;;;6280089;22;20067;-87